Los Angeles, California
Traffic Map
Current Weather Conditions
Los Angeles, California
Clear
Clear
61°
Feels Like: 61°
Wind Chill: 61° Ceiling: Unl
Heat Index: 61° Visibility: 10mi
Dew Point: 50° Wind: 0mph
Humidity: 67% Direction: ° ()
Pressure: 29.95in Gusts: 0mph
Raw Report DataKCQT 241147Z AUTO 00000KT 10SM CLR 16/10 A2995 RMK AO2 SLP139 T01610100 10194 20156 55005
Traffic Incident Summary
Active as of:
Severity:
Category:
InformationThere was an issue retrieving the traffic information for this location. Please try a different location or try again shortly.
Advertisements
Track Severe Weather on mobile